Dinosaur, Colorado
Current Conditions -  °F | °C
As of 10:53 PM on Sunday 19 Oct 2014 (Local Time) from KVEL Reporting Station
Clear Clear  
Wind Chill: 50°   Ceiling: Unl
Heat Index: 50°   Visibility: 10mi
Dew Point: 33°   Wind: 6mph
Humidity: 52%   Direction: 290°WNW
Pressure: 30.13"   Gusts: NA
Location:  40.24°N, 109.01°W
Report Text: KVEL 200453Z AUTO 29005KT 10SM CLR 10/01 A3013 RMK AO2 SLP171 T01000006
Loading
Personal Weather Stations






























Interactive Weather Map
Tropical Storm Tracking
New forecast layout! Learn more

10-Day Weather Forecast

Advertisements
Track Severe Weather on mobile